Time;durP1;ratioP1;P1;durP2;ratioP2;P2;SDS_P1;SDS_P2;PMS_P1;PMS_P2;Temp;Humidity;BMP_temperature;BMP_pressure;BME280_temperature;BME280_humidity;BME280_pressure;Samples;Min_cycle;Max_cycle;Signal;HPM_P1;HPM_P2
2021/01/20 00:01:57;;;;;;;81.35;14.00;;;6.70;99.90;;;;;;4972704;28;20113;-79
2021/01/20 00:04:23;;;;;;;89.10;16.48;;;6.70;99.90;;;;;;4973594;28;20031;-78
2021/01/20 00:06:49;;;;;;;89.35;15.23;;;6.60;99.90;;;;;;4972829;28;20038;-78
2021/01/20 00:09:15;;;;;;;75.03;15.15;;;6.60;99.90;;;;;;4973769;28;20496;-79
2021/01/20 00:11:40;;;;;;;95.38;18.33;;;6.60;99.90;;;;;;4963355;28;20114;-79
2021/01/20 00:14:06;;;;;;;66.88;17.55;;;6.60;99.90;;;;;;4962023;28;20026;-79
2021/01/20 00:16:32;;;;;;;65.80;15.93;;;6.60;99.90;;;;;;4973714;28;20621;-78
2021/01/20 00:18:57;;;;;;;75.55;15.60;;;6.60;99.90;;;;;;4973803;28;20034;-78
2021/01/20 00:21:23;;;;;;;67.30;16.13;;;6.60;99.90;;;;;;4973300;28;20537;-78
2021/01/20 00:23:49;;;;;;;46.33;14.55;;;6.60;99.90;;;;;;4972281;28;20022;-76
2021/01/20 00:26:15;;;;;;;69.78;17.08;;;6.60;99.90;;;;;;4973347;28;20502;-77
2021/01/20 00:28:41;;;;;;;53.25;15.25;;;6.70;99.90;;;;;;4972825;28;20586;-78
2021/01/20 00:31:06;;;;;;;59.42;17.67;;;6.70;99.90;;;;;;4973489;28;20023;-78
2021/01/20 00:33:32;;;;;;;62.53;16.58;;;6.70;99.90;;;;;;4988384;28;20026;-78
2021/01/20 00:35:58;;;;;;;65.00;17.33;;;6.70;99.90;;;;;;4973234;28;20026;-78
2021/01/20 00:38:23;;;;;;;57.17;15.88;;;6.70;99.90;;;;;;4973167;28;20023;-77
2021/01/20 00:40:49;;;;;;;66.38;19.38;;;6.80;99.90;;;;;;4973269;28;20487;-77
2021/01/20 00:43:14;;;;;;;55.55;16.42;;;6.80;99.90;;;;;;4971757;28;20030;-78
2021/01/20 00:45:40;;;;;;;59.72;16.92;;;6.80;99.90;;;;;;4972976;28;20105;-78
2021/01/20 00:48:12;;;;;;;49.95;17.17;;;6.80;99.90;;;;;;4973066;28;20081;-77
2021/01/20 00:50:39;;;;;;;47.53;17.23;;;6.80;99.90;;;;;;4972009;28;20030;-77
2021/01/20 00:53:05;;;;;;;68.57;17.10;;;6.90;99.90;;;;;;4973224;28;20033;-76
2021/01/20 00:55:30;;;;;;;40.70;17.48;;;6.90;99.90;;;;;;4972864;28;20538;-76
2021/01/20 00:57:56;;;;;;;47.25;16.92;;;6.90;99.90;;;;;;4972868;28;20027;-77
2021/01/20 01:00:22;;;;;;;51.97;17.77;;;6.90;99.90;;;;;;4972931;28;20089;-77
2021/01/20 01:02:49;;;;;;;44.00;16.63;;;6.90;99.90;;;;;;4973061;28;20039;-77
2021/01/20 01:05:15;;;;;;;35.78;17.67;;;7.00;99.90;;;;;;4973326;28;20027;-77
2021/01/20 01:07:40;;;;;;;41.78;19.38;;;7.00;99.90;;;;;;4972843;28;20109;-76
2021/01/20 01:10:07;;;;;;;41.90;20.23;;;7.00;99.90;;;;;;4972970;28;20086;-76
2021/01/20 01:12:32;;;;;;;42.08;22.60;;;7.00;99.90;;;;;;4972618;28;20041;-77
2021/01/20 01:14:58;;;;;;;54.75;24.25;;;7.00;99.90;;;;;;4987231;28;20047;-77
2021/01/20 01:17:23;;;;;;;40.67;22.17;;;7.00;99.90;;;;;;4971811;28;20023;-77
2021/01/20 01:19:49;;;;;;;48.17;23.50;;;7.10;99.90;;;;;;4972385;28;20077;-77
2021/01/20 01:22:14;;;;;;;54.03;25.42;;;7.00;99.90;;;;;;4972885;28;20026;-76
2021/01/20 01:24:40;;;;;;;53.65;25.00;;;7.10;99.90;;;;;;4972686;28;20027;-76
2021/01/20 01:27:06;;;;;;;48.53;25.63;;;7.00;99.90;;;;;;4987809;28;20170;-76
2021/01/20 01:29:32;;;;;;;55.10;27.33;;;7.10;99.90;;;;;;4972688;28;20109;-77
2021/01/20 01:31:57;;;;;;;43.25;26.13;;;7.10;99.90;;;;;;4972590;28;20027;-77
2021/01/20 01:34:23;;;;;;;65.60;26.65;;;7.10;99.90;;;;;;4971322;28;20507;-76
2021/01/20 01:36:49;;;;;;;46.78;25.95;;;7.10;99.90;;;;;;4972906;28;20380;-77
2021/01/20 01:39:14;;;;;;;50.38;24.65;;;7.10;99.90;;;;;;4972461;28;20039;-77
2021/01/20 01:41:44;;;;;;;46.58;25.05;;;7.00;99.90;;;;;;4974656;28;20115;-77
2021/01/20 01:44:09;;;;;;;39.63;23.60;;;7.00;99.90;;;;;;4974824;28;20031;-76
2021/01/20 01:46:35;;;;;;;41.97;24.13;;;7.00;99.90;;;;;;4976680;28;20591;-77
2021/01/20 01:49:01;;;;;;;55.85;25.80;;;7.00;99.90;;;;;;4976304;28;20097;-77
2021/01/20 01:51:27;;;;;;;51.33;27.30;;;6.90;99.90;;;;;;4976507;28;20398;-77
2021/01/20 01:53:53;;;;;;;50.97;26.52;;;6.90;99.90;;;;;;4976191;28;20034;-77
2021/01/20 01:56:19;;;;;;;55.40;25.00;;;6.90;99.90;;;;;;4976204;28;20022;-76
2021/01/20 01:58:49;;;;;;;40.47;23.15;;;6.80;99.90;;;;;;4976034;28;20113;-77
2021/01/20 02:01:15;;;;;;;40.00;23.00;;;6.80;99.90;;;;;;4976350;28;20475;-76
2021/01/20 02:03:41;;;;;;;45.80;22.85;;;6.80;99.90;;;;;;4976188;28;20027;-77
2021/01/20 02:06:07;;;;;;;55.28;24.50;;;6.80;99.90;;;;;;4991141;28;20023;-77
2021/01/20 02:08:33;;;;;;;55.90;25.02;;;6.80;99.90;;;;;;4975931;28;20507;-76
2021/01/20 02:11:10;;;;;;;49.65;25.20;;;6.70;99.90;;;;;;4975951;28;20077;-75
2021/01/20 02:14:08;;;;;;;50.78;25.83;;;6.70;99.90;;;;;;4975917;28;20023;-77
2021/01/20 02:16:39;;;;;;;49.63;26.38;;;6.70;99.90;;;;;;4972051;28;20038;-77
2021/01/20 02:19:09;;;;;;;60.50;28.73;;;6.70;99.90;;;;;;4975925;28;20089;-76
2021/01/20 02:21:54;;;;;;;49.97;30.90;;;6.60;99.90;;;;;;4975877;28;20031;-76
2021/01/20 02:24:22;;;;;;;54.38;29.48;;;6.70;99.90;;;;;;4975621;28;20027;-76
2021/01/20 02:27:01;;;;;;;57.85;30.48;;;6.70;99.90;;;;;;4975667;28;20495;-76
2021/01/20 02:29:35;;;;;;;52.72;30.15;;;6.60;99.90;;;;;;4973998;28;20038;-76
2021/01/20 02:32:04;;;;;;;51.75;29.38;;;6.60;99.90;;;;;;4975735;28;20074;-76
2021/01/20 02:34:32;;;;;;;68.47;32.00;;;6.60;99.90;;;;;;4975481;28;20384;-76
2021/01/20 02:36:59;;;;;;;70.55;32.85;;;6.60;99.90;;;;;;4975493;28;20416;-76
2021/01/20 02:39:25;;;;;;;58.60;31.38;;;6.50;99.90;;;;;;4975607;28;20027;-76
2021/01/20 02:41:59;;;;;;;59.42;29.42;;;6.50;99.90;;;;;;4974373;28;20023;-76
2021/01/20 02:44:25;;;;;;;52.40;29.85;;;6.50;99.90;;;;;;4975085;28;20031;-76
2021/01/20 02:46:51;;;;;;;56.58;28.95;;;6.50;99.90;;;;;;4975539;28;20114;-76
2021/01/20 02:49:16;;;;;;;49.35;28.35;;;6.40;99.90;;;;;;4975583;28;20030;-77
2021/01/20 02:51:59;;;;;;;53.88;29.20;;;6.30;99.90;;;;;;4974825;28;20045;-76
2021/01/20 02:54:26;;;;;;;66.13;30.00;;;6.30;99.90;;;;;;4974954;28;20026;-76
2021/01/20 02:56:53;;;;;;;58.08;28.38;;;6.20;99.90;;;;;;4975230;28;20035;-77
2021/01/20 02:59:22;;;;;;;60.03;30.10;;;6.20;99.90;;;;;;4973915;28;20628;-76
2021/01/20 03:01:55;;;;;;;57.47;30.65;;;6.20;99.90;;;;;;4973973;28;20077;-76
2021/01/20 03:04:21;;;;;;;65.03;32.50;;;6.20;99.90;;;;;;4974831;28;20037;-76
2021/01/20 03:06:47;;;;;;;61.22;31.73;;;6.10;99.90;;;;;;4973971;28;20030;-77
2021/01/20 03:09:14;;;;;;;65.10;32.80;;;6.10;99.90;;;;;;4973763;28;20450;-76
2021/01/20 03:11:47;;;;;;;70.03;35.40;;;6.00;99.90;;;;;;4974678;28;20038;-76
2021/01/20 03:14:14;;;;;;;77.18;34.22;;;6.00;99.90;;;;;;4974572;28;20038;-76
2021/01/20 03:16:40;;;;;;;72.05;32.83;;;6.00;99.90;;;;;;4975024;28;20034;-76
2021/01/20 03:19:05;;;;;;;81.25;35.95;;;6.00;99.90;;;;;;4973750;28;20023;-77
2021/01/20 03:21:31;;;;;;;66.57;32.75;;;5.90;99.90;;;;;;4974570;28;20023;-76
2021/01/20 03:23:57;;;;;;;73.25;37.15;;;5.90;99.90;;;;;;4973351;28;20498;-75
2021/01/20 03:26:22;;;;;;;80.05;36.85;;;5.90;99.90;;;;;;4973965;28;20029;-76
2021/01/20 03:28:48;;;;;;;78.60;38.78;;;5.90;99.90;;;;;;4989483;28;20534;-76
2021/01/20 03:31:13;;;;;;;86.63;40.65;;;5.80;99.90;;;;;;4974737;28;20018;-76
2021/01/20 03:33:39;;;;;;;97.38;41.25;;;5.80;99.90;;;;;;4974445;28;20565;-76
2021/01/20 03:36:05;;;;;;;81.13;40.95;;;5.80;99.90;;;;;;4974442;28;20487;-77
2021/01/20 03:38:30;;;;;;;79.50;38.15;;;5.80;99.90;;;;;;4974125;28;20042;-76
2021/01/20 03:40:56;;;;;;;80.05;39.10;;;5.80;99.90;;;;;;4969968;28;20065;-77
2021/01/20 03:43:21;;;;;;;94.20;40.58;;;5.70;99.90;;;;;;4957747;28;20061;-76
2021/01/20 03:45:47;;;;;;;81.28;40.70;;;5.70;99.90;;;;;;4974195;28;20042;-76
2021/01/20 03:48:12;;;;;;;99.38;43.92;;;5.70;99.90;;;;;;4974143;28;20035;-76
2021/01/20 03:50:38;;;;;;;80.63;43.60;;;5.70;99.90;;;;;;4973706;28;20106;-76
2021/01/20 03:53:04;;;;;;;96.18;44.38;;;5.70;99.90;;;;;;4973052;28;20475;-76
2021/01/20 03:55:29;;;;;;;89.82;45.05;;;5.70;99.90;;;;;;4972705;28;20031;-76
2021/01/20 03:57:55;;;;;;;106.35;48.72;;;5.70;99.90;;;;;;4969494;28;20027;-75
2021/01/20 04:00:21;;;;;;;95.68;45.17;;;5.70;99.90;;;;;;4972104;28;20050;-75
2021/01/20 04:02:46;;;;;;;116.97;49.40;;;5.70;99.90;;;;;;4973943;28;20027;-75
2021/01/20 04:05:12;;;;;;;138.18;49.50;;;5.70;99.90;;;;;;4971931;28;20030;-76
2021/01/20 04:07:37;;;;;;;122.43;50.03;;;5.70;99.90;;;;;;4972469;28;20022;-76
2021/01/20 04:10:07;;;;;;;118.22;51.50;;;5.70;99.90;;;;;;4973957;28;20031;-75
2021/01/20 04:12:36;;;;;;;119.97;51.03;;;5.70;99.90;;;;;;4973670;28;20034;-75
2021/01/20 04:15:07;;;;;;;124.68;51.70;;;5.70;99.90;;;;;;4973368;28;20038;-76
2021/01/20 04:17:33;;;;;;;123.00;54.13;;;5.70;99.90;;;;;;4973838;28;20030;-76
2021/01/20 04:19:59;;;;;;;147.30;56.03;;;5.70;99.90;;;;;;4973483;28;20031;-76
2021/01/20 04:22:25;;;;;;;119.93;55.40;;;5.60;99.90;;;;;;4972435;28;20026;-75
2021/01/20 04:24:50;;;;;;;128.23;54.22;;;5.60;99.90;;;;;;4973575;28;20081;-76
2021/01/20 04:27:16;;;;;;;127.00;54.88;;;5.70;99.90;;;;;;4973776;28;20053;-76
2021/01/20 04:29:42;;;;;;;147.40;56.28;;;5.60;99.90;;;;;;4973300;28;20057;-76
2021/01/20 04:32:08;;;;;;;128.20;55.58;;;5.60;99.90;;;;;;4972290;28;20018;-75
2021/01/20 04:34:33;;;;;;;118.45;55.25;;;5.60;99.90;;;;;;4973312;28;20045;-75
2021/01/20 04:36:59;;;;;;;130.55;57.60;;;5.60;99.90;;;;;;4973513;28;20030;-76
2021/01/20 04:39:25;;;;;;;134.80;57.63;;;5.60;99.90;;;;;;4973333;28;20538;-76
2021/01/20 04:41:51;;;;;;;143.88;57.80;;;5.60;99.90;;;;;;4972202;28;20029;-76
2021/01/20 04:44:17;;;;;;;119.30;54.58;;;5.70;99.90;;;;;;4971778;28;20027;-76
2021/01/20 04:46:43;;;;;;;118.95;56.47;;;5.60;99.90;;;;;;4973427;28;20106;-76
2021/01/20 04:49:14;;;;;;;133.27;56.08;;;5.60;99.90;;;;;;4973136;28;20023;-76
2021/01/20 04:51:41;;;;;;;115.18;52.22;;;5.60;99.90;;;;;;4972015;28;20416;-76
2021/01/20 04:54:09;;;;;;;126.32;53.70;;;5.60;99.90;;;;;;4973022;28;20110;-77
2021/01/20 04:56:35;;;;;;;114.03;52.70;;;5.60;99.90;;;;;;4973274;28;20023;-76
2021/01/20 04:59:01;;;;;;;113.03;52.88;;;5.70;99.90;;;;;;4972927;28;20373;-76
2021/01/20 05:01:27;;;;;;;105.57;50.88;;;5.70;99.90;;;;;;4973200;28;20045;-76
2021/01/20 05:03:53;;;;;;;117.00;52.20;;;5.60;99.90;;;;;;4971746;28;20390;-76
2021/01/20 05:06:19;;;;;;;105.28;49.20;;;5.60;99.90;;;;;;4973134;28;20058;-76
2021/01/20 05:08:45;;;;;;;117.70;52.83;;;5.60;99.90;;;;;;4972943;28;20051;-76
2021/01/20 05:11:10;;;;;;;113.50;52.67;;;5.60;99.90;;;;;;4972819;28;20446;-76
2021/01/20 05:13:36;;;;;;;115.47;51.17;;;5.60;99.90;;;;;;4972881;28;20019;-75
2021/01/20 05:16:01;;;;;;;113.85;51.38;;;5.60;99.90;;;;;;4972705;28;20503;-76
2021/01/20 05:18:27;;;;;;;114.40;54.00;;;5.60;99.90;;;;;;4972634;28;20034;-76
2021/01/20 05:20:53;;;;;;;124.90;51.53;;;5.60;99.90;;;;;;4972988;28;20449;-76
2021/01/20 05:23:25;;;;;;;105.45;49.72;;;5.60;99.90;;;;;;4972966;28;20031;-76
2021/01/20 05:25:51;;;;;;;100.47;49.42;;;5.60;99.90;;;;;;4972848;28;20030;-76
2021/01/20 05:28:20;;;;;;;99.65;49.88;;;5.60;99.90;;;;;;4972487;28;20034;-76
2021/01/20 05:30:59;;;;;;;105.85;48.60;;;5.60;99.90;;;;;;4972926;28;20081;-76
2021/01/20 05:33:39;;;;;;;101.65;49.30;;;5.60;99.90;;;;;;4971556;28;20027;-76
2021/01/20 05:36:12;;;;;;;106.85;48.53;;;5.60;99.90;;;;;;4971286;28;20113;-76
2021/01/20 05:38:43;;;;;;;89.78;44.47;;;5.60;99.90;;;;;;4971666;28;20117;-76
2021/01/20 05:41:22;;;;;;;108.53;46.20;;;5.60;99.90;;;;;;4972860;28;20031;-76
2021/01/20 05:43:50;;;;;;;97.82;46.15;;;5.60;99.90;;;;;;4971170;28;20030;-77
2021/01/20 05:46:30;;;;;;;93.47;44.17;;;5.60;99.90;;;;;;4971565;28;20033;-75
2021/01/20 05:48:55;;;;;;;90.60;46.50;;;5.60;99.90;;;;;;4972751;28;20053;-77
2021/01/20 05:51:21;;;;;;;99.35;45.63;;;5.60;99.90;;;;;;4972803;28;20110;-76
2021/01/20 05:53:54;;;;;;;95.03;44.28;;;5.60;99.90;;;;;;4972547;28;20067;-76
2021/01/20 05:56:30;;;;;;;90.93;44.20;;;5.60;99.90;;;;;;4972777;28;20031;-76
2021/01/20 05:58:57;;;;;;;102.57;47.58;;;5.60;99.90;;;;;;4968074;28;20031;-76
2021/01/20 06:01:24;;;;;;;96.72;45.63;;;5.60;99.90;;;;;;4953337;28;20114;-76
2021/01/20 06:03:50;;;;;;;91.10;46.10;;;5.70;99.90;;;;;;4961221;28;20091;-75
2021/01/20 06:06:16;;;;;;;101.18;43.75;;;5.60;99.90;;;;;;4971407;28;20119;-75
2021/01/20 06:08:42;;;;;;;93.57;45.95;;;5.60;99.90;;;;;;4972481;28;20559;-75
2021/01/20 06:11:08;;;;;;;104.18;45.75;;;5.50;99.90;;;;;;4972151;28;20035;-76
2021/01/20 06:13:35;;;;;;;105.13;47.42;;;5.60;99.90;;;;;;4967950;28;20058;-75
2021/01/20 06:16:12;;;;;;;94.28;47.97;;;5.60;99.90;;;;;;4952973;29;20428;-75
2021/01/20 06:18:39;;;;;;;101.05;44.33;;;5.60;99.90;;;;;;4953201;29;20030;-75
2021/01/20 06:21:06;;;;;;;104.10;48.28;;;5.60;99.90;;;;;;4969781;28;20074;-76
2021/01/20 06:23:36;;;;;;;100.72;45.03;;;5.60;99.90;;;;;;4972209;28;20390;-75
2021/01/20 06:26:10;;;;;;;88.30;43.15;;;5.60;99.90;;;;;;4972477;28;20479;-75
2021/01/20 06:28:39;;;;;;;87.35;44.38;;;5.60;99.90;;;;;;4975221;28;20037;-76
2021/01/20 06:31:06;;;;;;;109.50;47.80;;;5.60;99.90;;;;;;4975885;28;20027;-76
2021/01/20 06:33:32;;;;;;;92.93;47.90;;;5.60;99.90;;;;;;4975369;28;20054;-76
2021/01/20 06:35:58;;;;;;;116.55;47.30;;;5.60;99.90;;;;;;4975547;28;20054;-76
2021/01/20 06:38:33;;;;;;;102.80;48.20;;;5.60;99.90;;;;;;4975455;28;20112;-76
2021/01/20 06:41:40;;;;;;;102.57;46.60;;;5.60;99.90;;;;;;4975441;28;20058;-76
2021/01/20 06:44:09;;;;;;;119.10;46.42;;;5.60;99.90;;;;;;4965926;28;20118;-76
2021/01/20 06:46:34;;;;;;;106.32;44.58;;;5.60;99.90;;;;;;4956290;28;20023;-75
2021/01/20 06:49:01;;;;;;;100.13;42.53;;;5.60;99.90;;;;;;4956158;29;20089;-75
2021/01/20 06:51:28;;;;;;;94.78;43.40;;;5.60;99.90;;;;;;4966973;28;20442;-76
2021/01/20 06:54:02;;;;;;;112.65;43.33;;;5.60;99.90;;;;;;4975354;28;20487;-76
2021/01/20 06:56:36;;;;;;;79.93;40.47;;;5.60;99.90;;;;;;4975185;28;20101;-76
2021/01/20 06:59:30;;;;;;;79.78;40.40;;;5.60;99.90;;;;;;4970727;28;20110;-76
2021/01/20 07:02:01;;;;;;;96.82;41.13;;;5.60;99.90;;;;;;4956009;28;20019;-76
2021/01/20 07:04:53;;;;;;;84.32;38.22;;;5.60;99.90;;;;;;4954548;29;20543;-75
2021/01/20 07:07:57;;;;;;;93.75;40.35;;;5.60;99.90;;;;;;4953982;29;20452;-75
2021/01/20 07:10:26;;;;;;;102.80;39.63;;;5.60;99.90;;;;;;4971537;28;20031;-75
2021/01/20 07:13:10;;;;;;;86.43;35.90;;;5.60;99.90;;;;;;4974943;28;20452;-76
2021/01/20 07:15:36;;;;;;;85.43;35.13;;;5.60;99.90;;;;;;4974847;28;20034;-75
2021/01/20 07:18:02;;;;;;;87.68;35.10;;;5.60;99.90;;;;;;4975026;28;20074;-75
2021/01/20 07:20:28;;;;;;;83.18;36.92;;;5.60;99.90;;;;;;4974757;28;20033;-76
2021/01/20 07:22:54;;;;;;;83.45;35.25;;;5.60;99.90;;;;;;4969995;28;20027;-76
2021/01/20 07:25:21;;;;;;;72.35;35.83;;;5.60;99.90;;;;;;4954190;29;20062;-76
2021/01/20 07:27:50;;;;;;;76.22;36.35;;;5.70;99.90;;;;;;4955479;29;20058;-76
2021/01/20 07:30:16;;;;;;;84.95;38.00;;;5.70;99.90;;;;;;4971225;28;20026;-76
2021/01/20 07:32:42;;;;;;;95.10;38.70;;;5.70;99.90;;;;;;4974671;28;20026;-75
2021/01/20 07:35:23;;;;;;;68.25;35.13;;;5.70;99.90;;;;;;4974449;28;20373;-76
2021/01/20 07:38:03;;;;;;;79.00;35.58;;;5.70;99.90;;;;;;4974634;28;20025;-76
2021/01/20 07:40:33;;;;;;;69.03;35.13;;;5.70;99.90;;;;;;4974271;28;20031;-75
2021/01/20 07:42:59;;;;;;;80.45;33.22;;;5.70;99.90;;;;;;4974571;28;20491;-75
2021/01/20 07:45:37;;;;;;;64.53;32.70;;;5.70;99.90;;;;;;4972891;28;20046;-75
2021/01/20 07:48:05;;;;;;;78.18;33.10;;;5.70;99.90;;;;;;4973245;28;20463;-75
2021/01/20 07:50:51;;;;;;;73.22;32.67;;;5.70;99.90;;;;;;4969602;28;20672;-76
2021/01/20 07:53:19;;;;;;;67.88;32.55;;;5.70;99.90;;;;;;4955050;28;20042;-76
2021/01/20 07:55:47;;;;;;;67.43;31.88;;;5.70;99.90;;;;;;4954794;29;20483;-76
2021/01/20 07:58:13;;;;;;;72.45;33.75;;;5.70;99.90;;;;;;4954821;28;20242;-75
2021/01/20 08:00:46;;;;;;;61.78;30.63;;;5.70;99.90;;;;;;4971435;28;20050;-76
2021/01/20 08:03:13;;;;;;;64.82;31.42;;;5.70;99.90;;;;;;4972298;28;20053;-75
2021/01/20 08:05:41;;;;;;;68.63;31.70;;;5.70;99.90;;;;;;4973723;28;20086;-76
2021/01/20 08:08:11;;;;;;;63.05;31.05;;;5.70;99.90;;;;;;4972758;28;20118;-76
2021/01/20 08:10:38;;;;;;;71.82;32.45;;;5.70;99.90;;;;;;4973694;28;20027;-77
2021/01/20 08:13:06;;;;;;;78.95;30.77;;;5.70;99.90;;;;;;4972343;28;20085;-77
2021/01/20 08:15:33;;;;;;;65.75;30.17;;;5.70;99.90;;;;;;4954089;29;20085;-77
2021/01/20 08:17:59;;;;;;;60.90;30.92;;;5.70;99.90;;;;;;4965716;28;20491;-76
2021/01/20 08:20:31;;;;;;;66.40;30.52;;;5.80;99.90;;;;;;4973803;28;20077;-77
2021/01/20 08:22:57;;;;;;;59.25;28.80;;;5.80;99.90;;;;;;4974317;28;20027;-77
2021/01/20 08:25:22;;;;;;;75.05;30.10;;;5.80;99.90;;;;;;4973410;28;20034;-77
2021/01/20 08:27:49;;;;;;;56.58;28.90;;;5.80;99.90;;;;;;4973343;28;20031;-77
2021/01/20 08:30:31;;;;;;;63.80;29.42;;;5.90;99.90;;;;;;4973282;28;20035;-77
2021/01/20 08:32:58;;;;;;;57.28;28.77;;;5.90;99.90;;;;;;4973434;28;20062;-77
2021/01/20 08:35:28;;;;;;;66.00;28.63;;;5.90;99.90;;;;;;4973072;28;20113;-76
2021/01/20 08:37:54;;;;;;;53.22;29.30;;;5.90;99.90;;;;;;4973236;28;20774;-77
2021/01/20 08:40:20;;;;;;;72.32;30.73;;;5.90;99.90;;;;;;4973431;28;20094;-76
2021/01/20 08:42:45;;;;;;;64.22;29.35;;;5.90;99.90;;;;;;4973323;28;20379;-77
2021/01/20 08:45:20;;;;;;;59.10;30.63;;;5.90;99.90;;;;;;4968282;28;20034;-77
2021/01/20 08:47:52;;;;;;;75.32;30.52;;;5.90;99.90;;;;;;4953996;29;20491;-77
2021/01/20 08:50:27;;;;;;;70.95;30.05;;;5.90;99.90;;;;;;4953696;28;20034;-77
2021/01/20 08:52:54;;;;;;;63.13;30.73;;;5.90;99.90;;;;;;4955783;28;20038;-77
2021/01/20 08:55:49;;;;;;;66.13;28.58;;;5.90;99.90;;;;;;4972887;28;20074;-76
2021/01/20 08:58:27;;;;;;;54.58;27.52;;;5.90;99.90;;;;;;4973033;28;20579;-76
2021/01/20 09:00:57;;;;;;;73.30;32.08;;;5.90;99.90;;;;;;4973125;28;20398;-76
2021/01/20 09:03:25;;;;;;;66.10;28.85;;;5.90;99.90;;;;;;4971584;28;20580;-77
2021/01/20 09:05:53;;;;;;;61.95;29.20;;;5.90;99.90;;;;;;4972911;28;20407;-77
2021/01/20 09:08:19;;;;;;;63.67;30.75;;;5.90;99.90;;;;;;4973214;28;20099;-76
2021/01/20 09:10:46;;;;;;;52.53;28.80;;;5.90;99.90;;;;;;4971731;28;20037;-77
2021/01/20 09:13:13;;;;;;;53.40;28.10;;;5.90;99.90;;;;;;4971050;28;20031;-76
2021/01/20 09:15:39;;;;;;;55.75;28.70;;;5.90;99.90;;;;;;4972676;28;20062;-76
2021/01/20 09:18:06;;;;;;;68.63;30.55;;;6.00;99.90;;;;;;4971680;28;20085;-76
2021/01/20 09:20:35;;;;;;;57.85;29.10;;;6.00;99.90;;;;;;4971674;28;20085;-76
2021/01/20 09:23:05;;;;;;;60.78;27.85;;;6.00;99.90;;;;;;4967796;28;20037;-76
2021/01/20 09:25:31;;;;;;;54.67;26.60;;;6.00;99.90;;;;;;4953356;29;20035;-76
2021/01/20 09:27:57;;;;;;;55.10;26.38;;;6.10;99.90;;;;;;4952358;29;20031;-77
2021/01/20 09:30:23;;;;;;;60.22;26.45;;;6.10;99.90;;;;;;4971468;28;20039;-77
2021/01/20 09:32:48;;;;;;;51.72;28.10;;;6.10;99.90;;;;;;4972741;28;20492;-77
2021/01/20 09:35:15;;;;;;;60.03;28.13;;;6.10;99.90;;;;;;4971163;28;20030;-77
2021/01/20 09:37:42;;;;;;;61.03;30.08;;;6.00;99.90;;;;;;4972640;28;20023;-77
2021/01/20 09:40:13;;;;;;;56.92;28.52;;;6.10;99.90;;;;;;4970227;28;20062;-77
2021/01/20 09:42:40;;;;;;;59.72;26.95;;;6.10;99.90;;;;;;4972484;28;20055;-76
2021/01/20 09:45:08;;;;;;;55.58;29.92;;;6.10;99.90;;;;;;4972489;28;20026;-78
2021/01/20 09:47:43;;;;;;;63.45;30.17;;;6.20;99.90;;;;;;4971344;28;20487;-77
2021/01/20 09:50:10;;;;;;;54.30;27.65;;;6.20;99.90;;;;;;4972819;28;20526;-77
2021/01/20 09:52:37;;;;;;;49.78;27.40;;;6.20;99.90;;;;;;4967994;28;20035;-79
2021/01/20 09:55:04;;;;;;;53.03;25.48;;;6.20;99.90;;;;;;4953248;29;20035;-79
2021/01/20 09:57:29;;;;;;;45.05;26.30;;;6.20;99.90;;;;;;4953294;29;20034;-78
2021/01/20 09:59:55;;;;;;;51.33;24.30;;;6.20;99.90;;;;;;4967600;28;20023;-78
2021/01/20 10:02:21;;;;;;;51.25;24.63;;;6.20;99.90;;;;;;4973904;28;20033;-78
2021/01/20 10:04:46;;;;;;;47.83;23.92;;;6.30;99.90;;;;;;4975059;28;20487;-78
2021/01/20 10:07:16;;;;;;;51.88;23.52;;;6.30;99.90;;;;;;4971783;28;20605;-78
2021/01/20 10:09:42;;;;;;;49.92;23.58;;;6.20;99.90;;;;;;4957011;28;20031;-78
2021/01/20 10:12:10;;;;;;;39.38;21.75;;;6.20;99.90;;;;;;4975756;28;20443;-78
2021/01/20 10:14:36;;;;;;;36.30;20.25;;;6.20;99.90;;;;;;4996661;28;20030;-78
2021/01/20 10:17:02;;;;;;;38.33;19.58;;;6.20;99.90;;;;;;4986175;28;20029;-78
2021/01/20 10:19:28;;;;;;;41.28;20.48;;;6.30;99.90;;;;;;4980347;28;20518;-78
2021/01/20 10:21:54;;;;;;;42.05;22.38;;;6.30;99.90;;;;;;4977953;28;20030;-78
2021/01/20 10:24:19;;;;;;;38.55;20.52;;;6.30;99.90;;;;;;4975012;28;20085;-78
2021/01/20 10:26:45;;;;;;;40.35;20.35;;;6.30;99.90;;;;;;4974489;28;20122;-78
2021/01/20 10:29:10;;;;;;;49.80;20.20;;;6.30;99.90;;;;;;4964616;28;20051;-76
2021/01/20 10:31:38;;;;;;;38.25;19.90;;;6.30;99.90;;;;;;4956542;28;20558;-77
2021/01/20 10:34:06;;;;;;;35.30;18.85;;;6.30;99.90;;;;;;4956309;28;20054;-76
2021/01/20 10:36:31;;;;;;;41.75;20.13;;;6.30;99.90;;;;;;4983708;28;20031;-76
2021/01/20 10:38:58;;;;;;;32.85;17.23;;;6.30;99.90;;;;;;4988542;28;20023;-76
2021/01/20 10:41:24;;;;;;;36.45;18.15;;;6.40;99.90;;;;;;4975128;28;20058;-75
2021/01/20 10:43:52;;;;;;;36.00;17.77;;;6.40;99.90;;;;;;4970785;28;20034;-77
2021/01/20 10:46:19;;;;;;;35.05;18.20;;;6.40;99.90;;;;;;4956232;28;20027;-79
2021/01/20 10:48:45;;;;;;;31.92;16.38;;;6.40;99.90;;;;;;4956140;28;20031;-79
2021/01/20 10:51:11;;;;;;;34.25;18.13;;;6.40;99.90;;;;;;4974837;28;20082;-78
2021/01/20 10:53:38;;;;;;;34.67;17.95;;;6.40;99.90;;;;;;4975564;28;20141;-78
2021/01/20 10:56:05;;;;;;;31.98;17.40;;;6.40;99.90;;;;;;4974984;28;20037;-78
2021/01/20 10:58:30;;;;;;;34.28;17.92;;;6.40;99.90;;;;;;4974973;28;20023;-78
2021/01/20 11:00:56;;;;;;;28.85;18.05;;;6.40;99.90;;;;;;4975104;28;20042;-77
2021/01/20 11:03:22;;;;;;;30.58;18.42;;;6.40;99.90;;;;;;4975063;28;20022;-78
2021/01/20 11:05:47;;;;;;;32.90;17.67;;;6.40;99.90;;;;;;4975020;28;20027;-77
2021/01/20 11:08:13;;;;;;;33.40;18.90;;;6.40;99.90;;;;;;4975222;28;20038;-77
2021/01/20 11:10:39;;;;;;;34.08;18.90;;;6.40;99.90;;;;;;4972533;28;20058;-77
2021/01/20 11:13:08;;;;;;;45.35;19.83;;;6.30;99.90;;;;;;4974398;28;20042;-78
2021/01/20 11:15:47;;;;;;;35.92;19.05;;;6.30;99.90;;;;;;4973624;28;20038;-78
2021/01/20 11:18:15;;;;;;;32.63;18.45;;;6.30;99.90;;;;;;4974902;28;20498;-78
2021/01/20 11:20:42;;;;;;;35.92;18.42;;;6.40;99.90;;;;;;4968170;28;20031;-78
2021/01/20 11:23:10;;;;;;;37.28;18.65;;;6.40;99.90;;;;;;4977819;28;20038;-77
2021/01/20 11:25:44;;;;;;;35.58;18.23;;;6.40;99.90;;;;;;4973164;28;20026;-77
2021/01/20 11:28:11;;;;;;;37.10;18.67;;;6.40;99.90;;;;;;4973310;28;20023;-77
2021/01/20 11:30:36;;;;;;;30.92;17.60;;;6.40;99.90;;;;;;4974747;28;20422;-76
2021/01/20 11:33:02;;;;;;;41.00;19.13;;;6.40;99.90;;;;;;4974379;28;20031;-78
2021/01/20 11:35:28;;;;;;;38.85;18.23;;;6.40;99.90;;;;;;4988873;28;20023;-76
2021/01/20 11:37:56;;;;;;;42.00;18.88;;;6.50;99.90;;;;;;4974569;28;20105;-76
2021/01/20 11:40:23;;;;;;;28.30;16.25;;;6.40;99.90;;;;;;4989197;28;20023;-77
2021/01/20 11:42:48;;;;;;;36.35;18.42;;;6.50;99.90;;;;;;4974285;28;20041;-77
2021/01/20 11:45:14;;;;;;;37.85;17.48;;;6.50;99.90;;;;;;4973893;28;20023;-78
2021/01/20 11:47:39;;;;;;;34.78;15.93;;;6.50;99.90;;;;;;4974416;28;20122;-79
2021/01/20 11:50:06;;;;;;;53.25;17.50;;;6.50;99.90;;;;;;4969471;28;20031;-79
2021/01/20 11:52:31;;;;;;;29.38;16.52;;;6.50;99.90;;;;;;4954845;28;20059;-78
2021/01/20 11:54:57;;;;;;;31.55;17.45;;;6.50;99.90;;;;;;4986264;28;20148;-78
2021/01/20 11:57:23;;;;;;;31.23;17.17;;;6.60;99.90;;;;;;4992451;28;20033;-78
2021/01/20 11:59:48;;;;;;;37.63;18.20;;;6.50;99.90;;;;;;4977692;28;20033;-78
2021/01/20 12:02:14;;;;;;;32.53;17.83;;;6.50;99.90;;;;;;4972777;28;20027;-78
2021/01/20 12:04:39;;;;;;;33.88;15.93;;;6.60;99.90;;;;;;4973089;28;20031;-78
2021/01/20 12:07:05;;;;;;;37.60;17.35;;;6.60;99.90;;;;;;4973620;28;20030;-77
2021/01/20 12:09:30;;;;;;;31.35;18.35;;;6.70;99.90;;;;;;4973716;28;20060;-77
2021/01/20 12:11:56;;;;;;;32.60;16.98;;;6.70;99.90;;;;;;4973794;28;20031;-78
2021/01/20 12:14:21;;;;;;;28.40;13.73;;;6.70;99.90;;;;;;4973320;28;20034;-77
2021/01/20 12:16:47;;;;;;;28.33;14.82;;;6.70;99.90;;;;;;4973880;28;20101;-77
2021/01/20 12:19:12;;;;;;;21.30;14.18;;;6.70;99.90;;;;;;4972455;28;20488;-77
2021/01/20 12:21:38;;;;;;;31.13;14.07;;;6.80;99.90;;;;;;4973653;28;20058;-77
2021/01/20 12:24:05;;;;;;;28.73;12.60;;;6.80;99.90;;;;;;4968612;28;20039;-77
2021/01/20 12:26:30;;;;;;;25.10;12.77;;;6.80;99.90;;;;;;4975235;28;20036;-77
2021/01/20 12:28:56;;;;;;;31.15;12.48;;;6.80;99.90;;;;;;4985485;28;20118;-78
2021/01/20 12:31:21;;;;;;;24.50;12.98;;;6.90;99.90;;;;;;4973242;28;20086;-78
2021/01/20 12:33:47;;;;;;;26.15;13.38;;;6.90;99.90;;;;;;4963756;28;20023;-77
2021/01/20 12:36:12;;;;;;;19.40;11.57;;;6.90;99.90;;;;;;4972866;28;20034;-77
2021/01/20 12:38:38;;;;;;;20.58;12.73;;;6.90;99.90;;;;;;4973241;28;20407;-77
2021/01/20 12:41:04;;;;;;;24.52;12.40;;;7.00;99.90;;;;;;4973258;28;20106;-76